createdAt,value
2019-03-19T00:00:22.840Z,1024.1
2019-03-19T00:01:22.838Z,1024.1
2019-03-19T00:02:22.834Z,1024.1
2019-03-19T00:03:22.858Z,1024.2
2019-03-19T00:04:22.934Z,1024.2
2019-03-19T00:05:22.879Z,1024.2
2019-03-19T00:06:22.830Z,1024.2
2019-03-19T00:07:25.133Z,1024.2
2019-03-19T00:08:22.909Z,1024.2
2019-03-19T00:09:22.885Z,1024.2
2019-03-19T00:10:22.887Z,1024.3
2019-03-19T00:11:23.071Z,1024.3
2019-03-19T00:12:22.965Z,1024.4
2019-03-19T00:13:22.912Z,1024.3
2019-03-19T00:14:22.918Z,1024.3
2019-03-19T00:15:22.944Z,1024.4
2019-03-19T00:16:23.005Z,1024.4
2019-03-19T00:17:23.032Z,1024.3
2019-03-19T00:18:22.968Z,1024.3
2019-03-19T00:19:22.983Z,1024.4
2019-03-19T00:20:22.961Z,1024.4
2019-03-19T00:21:23.024Z,1024.4
2019-03-19T00:22:23.011Z,1024.4
2019-03-19T00:23:23.002Z,1024.4
2019-03-19T00:24:23.017Z,1024.4
2019-03-19T00:25:29.712Z,1024.5
2019-03-19T00:26:23.019Z,1024.5
2019-03-19T00:27:23.063Z,1024.4
2019-03-19T00:28:23.094Z,1024.5
2019-03-19T00:29:23.063Z,1024.5
2019-03-19T00:30:23.085Z,1024.5
2019-03-19T00:31:23.074Z,1024.5
2019-03-19T00:32:23.320Z,1024.5
2019-03-19T00:33:23.074Z,1024.5
2019-03-19T00:34:24.116Z,1024.5
2019-03-19T00:35:23.131Z,1024.5
2019-03-19T00:36:23.123Z,1024.5
2019-03-19T00:37:23.094Z,1024.6
2019-03-19T00:38:23.142Z,1024.6
2019-03-19T00:39:23.146Z,1024.5
2019-03-19T00:40:23.156Z,1024.5
2019-03-19T00:41:23.146Z,1024.5
2019-03-19T00:42:23.179Z,1024.6
2019-03-19T00:43:23.236Z,1024.6
2019-03-19T00:44:23.160Z,1024.7
2019-03-19T00:45:23.197Z,1024.6
2019-03-19T00:46:23.179Z,1024.7
2019-03-19T00:47:23.210Z,1024.6
2019-03-19T00:48:23.191Z,1024.7
2019-03-19T00:49:23.248Z,1024.6
2019-03-19T00:50:23.297Z,1024.7
2019-03-19T00:51:23.267Z,1024.7
2019-03-19T00:52:23.240Z,1024.7
2019-03-19T00:53:23.294Z,1024.6
2019-03-19T00:54:23.250Z,1024.6
2019-03-19T00:55:23.254Z,1024.7
2019-03-19T00:56:23.277Z,1024.6
2019-03-19T00:57:23.264Z,1024.6
2019-03-19T00:58:23.257Z,1024.6
2019-03-19T00:59:23.266Z,1024.6
2019-03-19T01:00:23.287Z,1024.6
2019-03-19T01:01:23.304Z,1024.6
2019-03-19T01:02:23.333Z,1024.7
2019-03-19T01:03:23.311Z,1024.6
2019-03-19T01:04:23.330Z,1024.7
2019-03-19T01:05:23.324Z,1024.7
2019-03-19T01:06:23.357Z,1024.7
2019-03-19T01:07:23.325Z,1024.7
2019-03-19T01:08:23.319Z,1024.7
2019-03-19T01:09:23.349Z,1024.7
2019-03-19T01:10:23.352Z,1024.7
2019-03-19T01:11:23.387Z,1024.7
2019-03-19T01:12:23.377Z,1024.7
2019-03-19T01:13:23.368Z,1024.7
2019-03-19T01:14:23.400Z,1024.6
2019-03-19T01:15:23.449Z,1024.7
2019-03-19T01:16:23.402Z,1024.7
2019-03-19T01:17:23.394Z,1024.7
2019-03-19T01:18:23.430Z,1024.7
2019-03-19T01:19:23.413Z,1024.7
2019-03-19T01:20:23.420Z,1024.7
2019-03-19T01:21:23.483Z,1024.7
2019-03-19T01:22:23.442Z,1024.6
2019-03-19T01:23:23.439Z,1024.7
2019-03-19T01:24:23.480Z,1024.6
2019-03-19T01:25:23.438Z,1024.6
2019-03-19T01:26:23.485Z,1024.6
2019-03-19T01:27:23.556Z,1024.6
2019-03-19T01:28:23.502Z,1024.5
2019-03-19T01:29:23.453Z,1024.5
2019-03-19T01:30:23.485Z,1024.6
2019-03-19T01:31:23.524Z,1024.6
2019-03-19T01:32:23.585Z,1024.6
2019-03-19T01:33:23.497Z,1024.6
2019-03-19T01:34:23.545Z,1024.5
2019-03-19T01:35:23.519Z,1024.5
2019-03-19T01:36:23.512Z,1024.6
2019-03-19T01:37:23.508Z,1024.5
2019-03-19T01:38:25.827Z,1024.6
2019-03-19T01:39:23.538Z,1024.5
2019-03-19T01:40:23.543Z,1024.6
2019-03-19T01:41:23.546Z,1024.6
2019-03-19T01:42:23.535Z,1024.6
2019-03-19T01:43:23.524Z,1024.6
2019-03-19T01:44:23.579Z,1024.7
2019-03-19T01:45:23.583Z,1024.7
2019-03-19T01:46:23.588Z,1024.7
2019-03-19T01:47:23.550Z,1024.6
2019-03-19T01:48:23.593Z,1024.7
2019-03-19T01:49:23.548Z,1024.7
2019-03-19T01:50:23.549Z,1024.6
2019-03-19T01:51:23.602Z,1024.8
2019-03-19T01:52:23.600Z,1024.6
2019-03-19T01:53:23.619Z,1024.8
2019-03-19T01:54:23.734Z,1024.7
2019-03-19T01:55:25.480Z,1024.7
2019-03-19T01:56:23.723Z,1024.8
2019-03-19T01:57:23.607Z,1024.8
2019-03-19T01:58:23.612Z,1024.7
2019-03-19T01:59:23.601Z,1024.8
2019-03-19T02:00:23.650Z,1024.8
2019-03-19T02:01:23.593Z,1024.8
2019-03-19T02:02:23.613Z,1024.8
2019-03-19T02:03:23.638Z,1024.9
2019-03-19T02:04:23.647Z,1024.9
2019-03-19T02:05:23.705Z,1024.9
2019-03-19T02:06:23.641Z,1025
2019-03-19T02:07:23.658Z,1025
2019-03-19T02:08:23.650Z,1025
2019-03-19T02:09:23.653Z,1025
2019-03-19T02:10:23.639Z,1025.1
2019-03-19T02:11:23.639Z,1025.1
2019-03-19T02:12:23.685Z,1025
2019-03-19T02:13:23.665Z,1025.1
2019-03-19T02:14:23.666Z,1025.1
2019-03-19T02:15:23.673Z,1025.1
2019-03-19T02:16:24.222Z,1025.1
2019-03-19T02:17:23.701Z,1025.1
2019-03-19T02:18:23.696Z,1025.2
2019-03-19T02:19:23.713Z,1025.1
2019-03-19T02:20:23.661Z,1025.1
2019-03-19T02:21:23.683Z,1025.2
2019-03-19T02:22:23.728Z,1025.1
2019-03-19T02:23:23.709Z,1025.2
2019-03-19T02:24:23.680Z,1025.2
2019-03-19T02:25:23.698Z,1025.2
2019-03-19T02:26:23.720Z,1025.2
2019-03-19T02:27:23.709Z,1025.2
2019-03-19T02:28:23.741Z,1025.2
2019-03-19T02:29:23.697Z,1025.2
2019-03-19T02:30:23.717Z,1025.2
2019-03-19T02:31:23.723Z,1025.1
2019-03-19T02:32:23.746Z,1025.2
2019-03-19T02:33:23.710Z,1025.2
2019-03-19T02:34:23.747Z,1025.2
2019-03-19T02:35:23.762Z,1025.2
2019-03-19T02:36:23.719Z,1025.2
2019-03-19T02:37:23.714Z,1025.3
2019-03-19T02:38:23.745Z,1025.3
2019-03-19T02:39:23.758Z,1025.3
2019-03-19T02:40:23.770Z,1025.3
2019-03-19T02:41:23.822Z,1025.4
2019-03-19T02:42:23.864Z,1025.3
2019-03-19T02:43:23.750Z,1025.4
2019-03-19T02:44:23.808Z,1025.4
2019-03-19T02:45:23.851Z,1025.3
2019-03-19T02:46:23.764Z,1025.3
2019-03-19T02:47:23.748Z,1025.3
2019-03-19T02:48:23.798Z,1025.4
2019-03-19T02:49:23.794Z,1025.4
2019-03-19T02:50:23.774Z,1025.4
2019-03-19T02:51:23.788Z,1025.3
2019-03-19T02:52:23.782Z,1025.4
2019-03-19T02:53:23.795Z,1025.4
2019-03-19T02:54:23.817Z,1025.4
2019-03-19T02:55:23.815Z,1025.4
2019-03-19T02:56:32.245Z,1025.4
2019-03-19T02:57:23.824Z,1025.4
2019-03-19T02:58:23.798Z,1025.4
2019-03-19T02:59:23.830Z,1025.4
2019-03-19T03:00:23.806Z,1025.4
2019-03-19T03:01:23.799Z,1025.5
2019-03-19T03:02:23.784Z,1025.5
2019-03-19T03:03:24.017Z,1025.5
2019-03-19T03:04:23.801Z,1025.5
2019-03-19T03:05:23.921Z,1025.5
2019-03-19T03:06:23.858Z,1025.5
2019-03-19T03:07:23.869Z,1025.5
2019-03-19T03:08:23.855Z,1025.6
2019-03-19T03:09:23.849Z,1025.7
2019-03-19T03:10:23.850Z,1025.6
2019-03-19T03:11:23.803Z,1025.7
2019-03-19T03:12:23.886Z,1025.7
2019-03-19T03:13:23.850Z,1025.8
2019-03-19T03:14:23.820Z,1025.7
2019-03-19T03:15:23.835Z,1025.8
2019-03-19T03:16:23.867Z,1025.7
2019-03-19T03:17:23.852Z,1025.7
2019-03-19T03:18:23.880Z,1025.7
2019-03-19T03:19:23.863Z,1025.7
2019-03-19T03:20:23.865Z,1025.7
2019-03-19T03:21:23.959Z,1025.8
2019-03-19T03:22:23.933Z,1025.7
2019-03-19T03:23:23.908Z,1025.8
2019-03-19T03:24:23.900Z,1025.8
2019-03-19T03:25:23.917Z,1025.7
2019-03-19T03:26:23.878Z,1025.8
2019-03-19T03:27:23.896Z,1025.8
2019-03-19T03:28:23.901Z,1025.8
2019-03-19T03:29:23.926Z,1025.8
2019-03-19T03:30:24.141Z,1025.8
2019-03-19T03:31:23.901Z,1025.8
2019-03-19T03:32:24.020Z,1025.8
2019-03-19T03:33:23.910Z,1025.7
2019-03-19T03:34:23.950Z,1025.8
2019-03-19T03:35:23.945Z,1025.8
2019-03-19T03:36:24.030Z,1025.8
2019-03-19T03:37:23.969Z,1025.8
2019-03-19T03:38:23.930Z,1025.9
2019-03-19T03:39:23.971Z,1025.9
2019-03-19T03:40:23.954Z,1025.9
2019-03-19T03:41:24.002Z,1025.9
2019-03-19T03:42:23.960Z,1025.8
2019-03-19T03:43:23.960Z,1025.9
2019-03-19T03:44:24.024Z,1025.9
2019-03-19T03:45:23.981Z,1025.9
2019-03-19T03:46:24.005Z,1025.9
2019-03-19T03:47:23.979Z,1025.9
2019-03-19T03:48:24.010Z,1025.9
2019-03-19T03:49:23.984Z,1025.9
2019-03-19T03:50:23.998Z,1025.9
2019-03-19T03:51:24.098Z,1025.8
2019-03-19T03:52:23.999Z,1025.9
2019-03-19T03:53:24.054Z,1025.9
2019-03-19T03:54:24.064Z,1025.9
2019-03-19T03:55:24.036Z,1025.9
2019-03-19T03:56:24.111Z,1025.9
2019-03-19T03:57:24.100Z,1025.9
2019-03-19T03:58:24.077Z,1025.9
2019-03-19T03:59:24.100Z,1025.9
2019-03-19T04:00:24.195Z,1025.9
2019-03-19T04:01:24.189Z,1026
2019-03-19T04:02:24.135Z,1026
2019-03-19T04:03:26.373Z,1026
2019-03-19T04:04:24.138Z,1026
2019-03-19T04:05:24.303Z,1026.1
2019-03-19T04:06:24.179Z,1026.2
2019-03-19T04:07:24.215Z,1026.1
2019-03-19T04:08:24.313Z,1026.1
2019-03-19T04:09:24.166Z,1026.1
2019-03-19T04:10:24.308Z,1026.1
2019-03-19T04:11:24.217Z,1026.1
2019-03-19T04:12:24.210Z,1026.1
2019-03-19T04:13:24.248Z,1026.1
2019-03-19T04:14:24.267Z,1026.1
2019-03-19T04:15:24.283Z,1026.1
2019-03-19T04:16:24.251Z,1026.1
2019-03-19T04:17:24.263Z,1026.2
2019-03-19T04:18:24.253Z,1026.2
2019-03-19T04:19:24.276Z,1026.2
2019-03-19T04:20:24.388Z,1026.2
2019-03-19T04:21:24.350Z,1026.2
2019-03-19T04:22:24.302Z,1026.2
2019-03-19T04:23:24.320Z,1026.2
2019-03-19T04:24:24.327Z,1026.3
2019-03-19T04:25:24.348Z,1026.2
2019-03-19T04:26:24.370Z,1026.3
2019-03-19T04:27:24.334Z,1026.3
2019-03-19T04:28:24.341Z,1026.3
2019-03-19T04:29:24.376Z,1026.2
2019-03-19T04:30:24.367Z,1026.2
2019-03-19T04:31:24.392Z,1026.2
2019-03-19T04:32:24.426Z,1026.3
2019-03-19T04:33:24.412Z,1026.3
2019-03-19T04:34:24.386Z,1026.4
2019-03-19T04:35:24.384Z,1026.3
2019-03-19T04:36:24.457Z,1026.4
2019-03-19T04:37:24.422Z,1026.4
2019-03-19T04:38:24.495Z,1026.4
2019-03-19T04:39:24.413Z,1026.4
2019-03-19T04:40:24.408Z,1026.5
2019-03-19T04:41:24.456Z,1026.4
2019-03-19T04:42:24.494Z,1026.5
2019-03-19T04:43:24.523Z,1026.4
2019-03-19T04:44:26.709Z,1026.4
2019-03-19T04:45:24.479Z,1026.4
2019-03-19T04:46:24.497Z,1026.5
2019-03-19T04:47:24.476Z,1026.4
2019-03-19T04:48:24.507Z,1026.5
2019-03-19T04:49:24.486Z,1026.5
2019-03-19T04:50:24.524Z,1026.5
2019-03-19T04:51:24.499Z,1026.6
2019-03-19T04:52:24.779Z,1026.6
2019-03-19T04:53:24.530Z,1026.6
2019-03-19T04:54:24.562Z,1026.6
2019-03-19T04:55:24.578Z,1026.6
2019-03-19T04:56:24.560Z,1026.6
2019-03-19T04:57:26.910Z,1026.6
2019-03-19T04:58:24.560Z,1026.6
2019-03-19T04:59:24.550Z,1026.6
2019-03-19T05:00:24.582Z,1026.6
2019-03-19T05:01:24.555Z,1026.6
2019-03-19T05:02:24.626Z,1026.7
2019-03-19T05:03:24.553Z,1026.6
2019-03-19T05:04:24.578Z,1026.7
2019-03-19T05:05:24.547Z,1026.7
2019-03-19T05:06:24.581Z,1026.7
2019-03-19T05:07:24.570Z,1026.7
2019-03-19T05:08:24.576Z,1026.8
2019-03-19T05:09:24.616Z,1026.7
2019-03-19T05:10:24.618Z,1026.7
2019-03-19T05:11:24.645Z,1026.8
2019-03-19T05:12:24.596Z,1026.7
2019-03-19T05:13:24.714Z,1026.7
2019-03-19T05:14:24.600Z,1026.7
2019-03-19T05:15:24.648Z,1026.7
2019-03-19T05:16:24.626Z,1026.8
2019-03-19T05:17:24.662Z,1026.8
2019-03-19T05:18:24.732Z,1026.8
2019-03-19T05:19:24.636Z,1026.9
2019-03-19T05:20:24.685Z,1026.8
2019-03-19T05:21:24.641Z,1026.9
2019-03-19T05:22:24.683Z,1026.9
2019-03-19T05:23:24.676Z,1027
2019-03-19T05:24:24.688Z,1026.9
2019-03-19T05:25:24.711Z,1026.9
2019-03-19T05:26:24.691Z,1027
2019-03-19T05:27:24.798Z,1026.9
2019-03-19T05:28:24.736Z,1026.9
2019-03-19T05:29:24.718Z,1026.9
2019-03-19T05:30:28.238Z,1026.9
2019-03-19T05:31:24.763Z,1026.9
2019-03-19T05:32:24.790Z,1026.9
2019-03-19T05:33:24.852Z,1027
2019-03-19T05:34:24.740Z,1026.9
2019-03-19T05:35:24.766Z,1027
2019-03-19T05:36:24.760Z,1027
2019-03-19T05:37:24.771Z,1027
2019-03-19T05:38:24.825Z,1027.1
2019-03-19T05:39:24.776Z,1027
2019-03-19T05:40:24.849Z,1027
2019-03-19T05:41:24.782Z,1027.2
2019-03-19T05:42:24.828Z,1027.1
2019-03-19T05:43:24.773Z,1027.2
2019-03-19T05:44:24.839Z,1027.2
2019-03-19T05:45:24.864Z,1027.2
2019-03-19T05:46:24.803Z,1027.1
2019-03-19T05:47:24.821Z,1027.1
2019-03-19T05:48:24.871Z,1027.2
2019-03-19T05:49:24.823Z,1027.2
2019-03-19T05:50:24.803Z,1027.2
2019-03-19T05:51:24.984Z,1027.2
2019-03-19T05:52:24.821Z,1027.2
2019-03-19T05:53:24.935Z,1027.2
2019-03-19T05:54:24.860Z,1027.3
2019-03-19T05:55:24.872Z,1027.3
2019-03-19T05:56:24.834Z,1027.3
2019-03-19T05:57:24.835Z,1027.3
2019-03-19T05:58:24.884Z,1027.3
2019-03-19T05:59:24.840Z,1027.3
2019-03-19T06:00:24.868Z,1027.2
2019-03-19T06:01:24.856Z,1027.3
2019-03-19T06:02:24.926Z,1027.3
2019-03-19T06:03:24.918Z,1027.3
2019-03-19T06:04:24.903Z,1027.3
2019-03-19T06:05:24.890Z,1027.3
2019-03-19T06:06:24.883Z,1027.3
2019-03-19T06:07:24.885Z,1027.4
2019-03-19T06:08:24.919Z,1027.4
2019-03-19T06:09:24.884Z,1027.4
2019-03-19T06:10:26.073Z,1027.5
2019-03-19T06:11:24.933Z,1027.5
2019-03-19T06:12:24.947Z,1027.5
2019-03-19T06:13:24.900Z,1027.5
2019-03-19T06:14:24.932Z,1027.5
2019-03-19T06:15:24.929Z,1027.5
2019-03-19T06:16:24.912Z,1027.5
2019-03-19T06:17:24.919Z,1027.4
2019-03-19T06:18:34.486Z,1027.6
2019-03-19T06:19:24.938Z,1027.5
2019-03-19T06:20:24.907Z,1027.6
2019-03-19T06:21:24.915Z,1027.5
2019-03-19T06:22:24.955Z,1027.6
2019-03-19T06:23:24.954Z,1027.5
2019-03-19T06:24:24.998Z,1027.5
2019-03-19T06:25:25.452Z,1027.5
2019-03-19T06:26:24.940Z,1027.6
2019-03-19T06:27:24.974Z,1027.5
2019-03-19T06:28:25.009Z,1027.5
2019-03-19T06:29:24.977Z,1027.6
2019-03-19T06:30:24.969Z,1027.6
2019-03-19T06:31:24.999Z,1027.6
2019-03-19T06:32:25.125Z,1027.6
2019-03-19T06:33:24.976Z,1027.6
2019-03-19T06:34:25.031Z,1027.5
2019-03-19T06:35:24.999Z,1027.5
2019-03-19T06:36:25.056Z,1027.6
2019-03-19T06:37:24.994Z,1027.6
2019-03-19T06:38:25.023Z,1027.6
2019-03-19T06:39:25.025Z,1027.6
2019-03-19T06:40:25.052Z,1027.6
2019-03-19T06:41:25.074Z,1027.6
2019-03-19T06:42:25.143Z,1027.6
2019-03-19T06:43:25.071Z,1027.6
2019-03-19T06:44:25.083Z,1027.7
2019-03-19T06:45:25.064Z,1027.6
2019-03-19T06:46:25.063Z,1027.6
2019-03-19T06:47:25.119Z,1027.7
2019-03-19T06:48:25.108Z,1027.7
2019-03-19T06:49:25.142Z,1027.6
2019-03-19T06:50:25.125Z,1027.7
2019-03-19T06:51:25.151Z,1027.7
2019-03-19T06:52:25.217Z,1027.7
2019-03-19T06:53:25.162Z,1027.7
2019-03-19T06:54:25.158Z,1027.8
2019-03-19T06:55:25.174Z,1027.8
2019-03-19T06:56:25.373Z,1027.8
2019-03-19T06:57:25.243Z,1027.8
2019-03-19T06:58:25.162Z,1027.8
2019-03-19T06:59:25.168Z,1027.8
2019-03-19T07:00:25.191Z,1027.9
2019-03-19T07:01:25.205Z,1027.8
2019-03-19T07:02:25.217Z,1027.7
2019-03-19T07:03:25.200Z,1027.8
2019-03-19T07:04:25.201Z,1027.8
2019-03-19T07:05:25.260Z,1027.7
2019-03-19T07:06:25.759Z,1027.8
2019-03-19T07:07:25.247Z,1027.7
2019-03-19T07:08:25.228Z,1027.7
2019-03-19T07:09:25.254Z,1027.7
2019-03-19T07:10:25.247Z,1027.8
2019-03-19T07:11:25.223Z,1027.8
2019-03-19T07:12:25.270Z,1027.8
2019-03-19T07:13:25.250Z,1027.8
2019-03-19T07:14:25.266Z,1027.8
2019-03-19T07:15:25.238Z,1027.8
2019-03-19T07:16:25.279Z,1027.7
2019-03-19T07:17:25.277Z,1027.8
2019-03-19T07:18:25.329Z,1027.8
2019-03-19T07:19:25.283Z,1027.6
2019-03-19T07:20:25.316Z,1027.7
2019-03-19T07:21:25.285Z,1027.7
2019-03-19T07:22:25.308Z,1027.7
2019-03-19T07:23:25.326Z,1027.7
2019-03-19T07:24:25.288Z,1027.8
2019-03-19T07:25:25.329Z,1027.7
2019-03-19T07:26:25.292Z,1027.7
2019-03-19T07:27:25.331Z,1027.7
2019-03-19T07:28:25.420Z,1027.9
2019-03-19T07:29:25.415Z,1027.9
2019-03-19T07:30:25.364Z,1027.9
2019-03-19T07:31:30.608Z,1027.9
2019-03-19T07:32:25.390Z,1027.9
2019-03-19T07:33:25.465Z,1028
2019-03-19T07:34:25.376Z,1027.9
2019-03-19T07:35:25.364Z,1028
2019-03-19T07:36:25.360Z,1028
2019-03-19T07:37:25.382Z,1027.9
2019-03-19T07:38:25.424Z,1028
2019-03-19T07:39:25.451Z,1028
2019-03-19T07:40:25.419Z,1027.9
2019-03-19T07:41:25.468Z,1028
2019-03-19T07:42:25.462Z,1027.9
2019-03-19T07:43:25.459Z,1028
2019-03-19T07:44:25.441Z,1028
2019-03-19T07:45:25.449Z,1028
2019-03-19T07:46:25.482Z,1028
2019-03-19T07:47:25.500Z,1027.9
2019-03-19T07:48:25.479Z,1028
2019-03-19T07:49:25.502Z,1028
2019-03-19T07:50:25.555Z,1028
2019-03-19T07:51:25.529Z,1028
2019-03-19T07:52:25.513Z,1028.1
2019-03-19T07:53:25.533Z,1028
2019-03-19T07:54:25.551Z,1028
2019-03-19T07:55:25.563Z,1028
2019-03-19T07:56:25.580Z,1028.1
2019-03-19T07:57:25.719Z,1028.1
2019-03-19T07:58:32.957Z,1028.1
2019-03-19T07:59:25.651Z,1028.1
2019-03-19T08:00:25.649Z,1028.1
2019-03-19T08:01:25.644Z,1028.1
2019-03-19T08:02:25.686Z,1028.1
2019-03-19T08:03:25.716Z,1028
2019-03-19T08:04:25.670Z,1028.1
2019-03-19T08:05:32.815Z,1028.2
2019-03-19T08:06:25.728Z,1028.1
2019-03-19T08:07:25.750Z,1028.2
2019-03-19T08:08:25.806Z,1028.2
2019-03-19T08:09:25.836Z,1028.2
2019-03-19T08:10:25.792Z,1028.1
2019-03-19T08:11:25.794Z,1028.2
2019-03-19T08:12:25.819Z,1028.2
2019-03-19T08:13:25.904Z,1028.2
2019-03-19T08:14:25.844Z,1028.2
2019-03-19T08:15:25.851Z,1028.2
2019-03-19T08:16:27.490Z,1028.2
2019-03-19T08:17:25.913Z,1028.2
2019-03-19T08:18:26.076Z,1028.2
2019-03-19T08:19:25.912Z,1028.2
2019-03-19T08:20:25.957Z,1028.1
2019-03-19T08:21:25.981Z,1028.2
2019-03-19T08:22:25.967Z,1028.3
2019-03-19T08:23:25.968Z,1028.2
2019-03-19T08:24:25.994Z,1028.3
2019-03-19T08:25:26.005Z,1028.4
2019-03-19T08:26:26.026Z,1028.4
2019-03-19T08:27:26.010Z,1028.4
2019-03-19T08:28:26.075Z,1028.5
2019-03-19T08:29:26.078Z,1028.5
2019-03-19T08:30:26.079Z,1028.5
2019-03-19T08:31:26.181Z,1028.4
2019-03-19T08:32:26.235Z,1028.5
2019-03-19T08:33:26.130Z,1028.5
2019-03-19T08:34:26.173Z,1028.6
2019-03-19T08:35:26.152Z,1028.6
2019-03-19T08:36:26.211Z,1028.6
2019-03-19T08:37:26.242Z,1028.6
2019-03-19T08:38:26.567Z,1028.6
2019-03-19T08:39:26.222Z,1028.6
2019-03-19T08:40:26.265Z,1028.7
2019-03-19T08:41:26.248Z,1028.7
2019-03-19T08:42:26.288Z,1028.7
2019-03-19T08:43:26.298Z,1028.7
2019-03-19T08:44:27.799Z,1028.6
2019-03-19T08:45:26.349Z,1028.7
2019-03-19T08:46:26.335Z,1028.7
2019-03-19T08:47:26.363Z,1028.7
2019-03-19T08:48:26.373Z,1028.8
2019-03-19T08:49:26.359Z,1028.7
2019-03-19T08:50:26.397Z,1028.7
2019-03-19T08:51:26.422Z,1028.7
2019-03-19T08:52:26.398Z,1028.8
2019-03-19T08:53:26.384Z,1028.8
2019-03-19T08:54:26.435Z,1028.8
2019-03-19T08:55:26.466Z,1028.7
2019-03-19T08:56:26.480Z,1028.7
2019-03-19T08:57:26.508Z,1028.8
2019-03-19T08:58:26.499Z,1028.7
2019-03-19T08:59:26.470Z,1028.6
2019-03-19T09:00:26.520Z,1028.7
2019-03-19T09:01:26.553Z,1028.8
2019-03-19T09:02:26.530Z,1028.8
2019-03-19T09:03:26.518Z,1028.8
2019-03-19T09:04:26.546Z,1028.7
2019-03-19T09:05:26.557Z,1028.8
2019-03-19T09:06:26.585Z,1028.9
2019-03-19T09:07:26.586Z,1028.9
2019-03-19T09:08:27.050Z,1028.9
2019-03-19T09:09:26.634Z,1028.9
2019-03-19T09:10:26.657Z,1028.9
2019-03-19T09:11:26.677Z,1028.8
2019-03-19T09:12:26.656Z,1028.9
2019-03-19T09:13:26.664Z,1028.8
2019-03-19T09:14:26.654Z,1028.9
2019-03-19T09:15:26.714Z,1028.8
2019-03-19T09:16:26.703Z,1028.8
2019-03-19T09:17:26.738Z,1028.8
2019-03-19T09:18:26.697Z,1028.9
2019-03-19T09:19:26.744Z,1028.8
2019-03-19T09:20:26.819Z,1028.8
2019-03-19T09:21:26.779Z,1028.8
2019-03-19T09:22:29.706Z,1028.9
2019-03-19T09:23:26.734Z,1028.9
2019-03-19T09:24:26.805Z,1028.7
2019-03-19T09:25:26.822Z,1028.7
2019-03-19T09:26:26.953Z,1028.8
2019-03-19T09:27:26.805Z,1028.7
2019-03-19T09:28:26.819Z,1028.6
2019-03-19T09:29:26.887Z,1028.7
2019-03-19T09:30:26.841Z,1028.8
2019-03-19T09:31:26.865Z,1028.9
2019-03-19T09:32:26.882Z,1028.7
2019-03-19T09:33:26.858Z,1028.7
2019-03-19T09:34:26.892Z,1028.8
2019-03-19T09:35:26.899Z,1028.7
2019-03-19T09:36:27.013Z,1028.7
2019-03-19T09:37:26.930Z,1028.7
2019-03-19T09:38:26.977Z,1028.7
2019-03-19T09:39:26.929Z,1028.7
2019-03-19T09:40:26.943Z,1028.7
2019-03-19T09:41:26.954Z,1028.7
2019-03-19T09:42:26.952Z,1028.6
2019-03-19T09:43:26.975Z,1028.6
2019-03-19T09:44:28.012Z,1028.7
2019-03-19T09:45:27.051Z,1028.8
2019-03-19T09:46:26.987Z,1028.8
2019-03-19T09:47:27.062Z,1028.7
2019-03-19T09:48:28.269Z,1028.7
2019-03-19T09:49:27.048Z,1028.7
2019-03-19T09:50:27.066Z,1028.7
2019-03-19T09:51:27.049Z,1028.7
2019-03-19T09:52:27.194Z,1028.6
2019-03-19T09:53:27.060Z,1028.6
2019-03-19T09:54:27.116Z,1028.7
2019-03-19T09:55:27.126Z,1028.7
2019-03-19T09:56:27.149Z,1028.7
2019-03-19T09:57:27.100Z,1028.7
2019-03-19T09:58:27.169Z,1028.7
2019-03-19T09:59:27.499Z,1028.7
2019-03-19T10:00:27.211Z,1028.8
2019-03-19T10:01:27.161Z,1028.8
2019-03-19T10:02:27.195Z,1028.7
2019-03-19T10:03:27.176Z,1028.7
2019-03-19T10:04:27.209Z,1028.7
2019-03-19T10:05:27.234Z,1028.7
2019-03-19T10:06:27.229Z,1028.7
2019-03-19T10:07:27.260Z,1028.7
2019-03-19T10:08:27.247Z,1028.7
2019-03-19T10:09:27.230Z,1028.8
2019-03-19T10:10:27.278Z,1028.8
2019-03-19T10:11:27.248Z,1028.8
2019-03-19T10:12:27.273Z,1028.9
2019-03-19T10:13:27.295Z,1028.9
2019-03-19T10:14:59.608Z,1028.9
2019-03-19T10:15:27.332Z,1028.9
2019-03-19T10:16:27.308Z,1028.9
2019-03-19T10:17:27.301Z,1029
2019-03-19T10:18:27.299Z,1029
2019-03-19T10:19:27.371Z,1029
2019-03-19T10:20:27.382Z,1028.8
2019-03-19T10:21:27.357Z,1028.9
2019-03-19T10:22:27.814Z,1028.9
2019-03-19T10:23:27.360Z,1028.8
2019-03-19T10:24:27.368Z,1028.8
2019-03-19T10:25:27.485Z,1028.9
2019-03-19T10:26:27.397Z,1028.8
2019-03-19T10:27:27.404Z,1028.8
2019-03-19T10:28:27.444Z,1028.8
2019-03-19T10:29:37.488Z,1028.9
2019-03-19T10:30:27.447Z,1028.9
2019-03-19T10:31:27.445Z,1028.9
2019-03-19T10:32:27.491Z,1028.8
2019-03-19T10:33:27.443Z,1028.8
2019-03-19T10:34:27.453Z,1028.9
2019-03-19T10:35:27.490Z,1028.9
2019-03-19T10:36:27.495Z,1029
2019-03-19T10:37:27.468Z,1029
2019-03-19T10:38:27.511Z,1028.9
2019-03-19T10:39:27.516Z,1028.9
2019-03-19T10:40:27.552Z,1028.9
2019-03-19T10:41:27.508Z,1028.9
2019-03-19T10:42:27.538Z,1029
2019-03-19T10:43:27.517Z,1028.9
2019-03-19T10:44:27.520Z,1029
2019-03-19T10:45:27.538Z,1029.1
2019-03-19T10:46:28.547Z,1029
2019-03-19T10:47:27.563Z,1029.1
2019-03-19T10:48:27.533Z,1029
2019-03-19T10:49:27.597Z,1029
2019-03-19T10:50:27.531Z,1029
2019-03-19T10:51:27.570Z,1029
2019-03-19T10:52:27.604Z,1029.1
2019-03-19T10:53:27.558Z,1029.1
2019-03-19T10:54:27.568Z,1029.1
2019-03-19T10:55:27.619Z,1029
2019-03-19T10:56:27.592Z,1029.1
2019-03-19T10:57:27.605Z,1029
2019-03-19T10:58:27.617Z,1029.1
2019-03-19T10:59:27.625Z,1029.1
2019-03-19T11:00:27.611Z,1029
2019-03-19T11:01:27.597Z,1029
2019-03-19T11:02:27.635Z,1029
2019-03-19T11:03:27.687Z,1029
2019-03-19T11:04:27.656Z,1029
2019-03-19T11:05:27.638Z,1029
2019-03-19T11:06:27.774Z,1029
2019-03-19T11:07:27.637Z,1028.9
2019-03-19T11:08:27.634Z,1028.9
2019-03-19T11:11:03.575Z,1028.8
2019-03-19T11:11:27.761Z,1028.8
2019-03-19T11:12:27.688Z,1028.7
2019-03-19T11:13:27.657Z,1028.6
2019-03-19T11:14:27.707Z,1028.6
2019-03-19T11:15:27.710Z,1028.6
2019-03-19T11:16:27.728Z,1028.6
2019-03-19T11:17:28.544Z,1028.6
2019-03-19T11:18:27.724Z,1028.6
2019-03-19T11:19:27.747Z,1028.6
2019-03-19T11:20:27.737Z,1028.6
2019-03-19T11:21:27.721Z,1028.6
2019-03-19T11:22:27.704Z,1028.6
2019-03-19T11:23:27.721Z,1028.7
2019-03-19T11:24:27.735Z,1028.7
2019-03-19T11:25:28.758Z,1028.5
2019-03-19T11:26:28.767Z,1028.6
2019-03-19T11:27:29.950Z,1028.6
2019-03-19T11:28:27.760Z,1028.7
2019-03-19T11:29:27.774Z,1028.5
2019-03-19T11:30:27.768Z,1028.5
2019-03-19T11:31:27.741Z,1028.5
2019-03-19T11:32:27.807Z,1028.6
2019-03-19T11:33:27.754Z,1028.5
2019-03-19T11:34:27.789Z,1028.5
2019-03-19T11:35:27.779Z,1028.4
2019-03-19T11:36:27.753Z,1028.5
2019-03-19T11:37:27.811Z,1028.5
2019-03-19T11:38:27.777Z,1028.5
2019-03-19T11:39:27.759Z,1028.6
2019-03-19T11:40:27.788Z,1028.5
2019-03-19T11:41:27.783Z,1028.5
2019-03-19T11:42:27.784Z,1028.5
2019-03-19T11:43:27.817Z,1028.5
2019-03-19T11:44:27.786Z,1028.5
2019-03-19T11:45:27.781Z,1028.4
2019-03-19T11:46:27.852Z,1028.4
2019-03-19T11:47:27.830Z,1028.3
2019-03-19T11:48:27.857Z,1028.4
2019-03-19T11:49:27.803Z,1028.4
2019-03-19T11:50:27.812Z,1028.4
2019-03-19T11:51:27.844Z,1028.5
2019-03-19T11:52:27.846Z,1028.5
2019-03-19T11:53:27.811Z,1028.4
2019-03-19T11:54:27.847Z,1028.5
2019-03-19T11:55:27.898Z,1028.3
2019-03-19T11:56:27.843Z,1028.5
2019-03-19T11:57:27.860Z,1028.5
2019-03-19T11:58:27.882Z,1028.6
2019-03-19T11:59:27.834Z,1028.6
2019-03-19T12:00:27.835Z,1028.6
2019-03-19T12:01:27.844Z,1028.8
2019-03-19T12:02:27.886Z,1028.7
2019-03-19T12:03:27.861Z,1028.8
2019-03-19T12:04:27.865Z,1028.8
2019-03-19T12:05:27.857Z,1028.9
2019-03-19T12:06:27.868Z,1029
2019-03-19T12:07:27.918Z,1029
2019-03-19T12:08:27.910Z,1029
2019-03-19T12:09:27.918Z,1029.1
2019-03-19T12:10:27.894Z,1029.1
2019-03-19T12:11:27.919Z,1029.1
2019-03-19T12:12:27.894Z,1029.1
2019-03-19T12:13:27.878Z,1029.1
2019-03-19T12:14:27.893Z,1029.1
2019-03-19T12:15:27.881Z,1029.1
2019-03-19T12:16:27.903Z,1029.1
2019-03-19T12:17:27.951Z,1029.1
2019-03-19T12:18:27.912Z,1029.1
2019-03-19T12:19:27.903Z,1029
2019-03-19T12:20:27.912Z,1029
2019-03-19T12:21:27.943Z,1029
2019-03-19T12:22:27.905Z,1028.9
2019-03-19T12:23:27.949Z,1029
2019-03-19T12:24:27.971Z,1029
2019-03-19T12:25:27.962Z,1028.9
2019-03-19T12:26:27.954Z,1029
2019-03-19T12:27:27.908Z,1029.1
2019-03-19T12:28:38.983Z,1029
2019-03-19T12:29:28.022Z,1029
2019-03-19T12:30:27.936Z,1029.1
2019-03-19T12:31:27.934Z,1029.1
2019-03-19T12:32:28.013Z,1029.1
2019-03-19T12:33:27.952Z,1029.2